Aviation Digital Data Service (ADDS)

Output produced by METARs form (2352 UTC 24 April 2019)
found at http://www.aviationweather.gov/metar/data/
 
Forecast for: ZGSZ (SHENZHEN , CN)
Text: TAF ZGSZ 241909Z 2500/2524 17004MPS 6000 SCT030 TX30/2506Z TN25/2522Z
Forecast period: 0000 UTC 25 April 2019 to 0000 UTC 26 April 2019
Forecast type: FROM: standard forecast or significant change
Winds: from the S (170 degrees) at 9 MPH (8 knots; 4.1 m/s)
Visibility: 4 miles (6 km)
Ceiling: at least 12,000 feet AGL
Clouds: scattered clouds at 3000 feet AGL
Weather: no significant weather forecast for this period
Text: TEMPO 2506/2512 SHRA SCT015 FEW020CB BKN030
Forecast period: 0600 to 1200 UTC 25 April 2019
Forecast type: TEMPORARY: The following changes expected for less than half the time period
Visibility: missing
Ceiling: 3000 feet AGL
Clouds: scattered clouds at 1500 feet AGL
few clouds at 2000 feet AGL
broken clouds at 3000 feet AGL
Weather: SHRA  (rain showers)